createdAt,value
2018-06-24T00:00:09.120Z,14.75
2018-06-24T00:02:42.526Z,16.75
2018-06-24T00:05:14.441Z,16.25
2018-06-24T00:07:47.068Z,15.00
2018-06-24T00:10:18.306Z,14.50
2018-06-24T00:12:49.553Z,15.75
2018-06-24T00:15:21.155Z,14.50
2018-06-24T00:17:52.564Z,14.25
2018-06-24T00:20:23.771Z,14.50
2018-06-24T00:22:54.273Z,14.75
2018-06-24T00:25:25.751Z,16.75
2018-06-24T00:27:56.944Z,12.25
2018-06-24T00:30:28.445Z,16.00
2018-06-24T00:32:58.739Z,13.50
2018-06-24T00:35:30.362Z,13.75
2018-06-24T00:38:01.714Z,14.00
2018-06-24T00:40:32.573Z,13.25
2018-06-24T00:43:03.299Z,15.00
2018-06-24T00:45:35.340Z,15.00
2018-06-24T00:48:06.964Z,17.00
2018-06-24T00:50:39.787Z,15.25
2018-06-24T00:53:11.150Z,16.00
2018-06-24T00:55:44.857Z,15.25
2018-06-24T00:58:17.017Z,14.75
2018-06-24T01:00:48.216Z,16.00
2018-06-24T01:03:18.605Z,15.00
2018-06-24T01:05:50.478Z,16.00
2018-06-24T01:08:22.243Z,15.00
2018-06-24T01:10:53.100Z,15.75
2018-06-24T01:13:24.926Z,15.75
2018-06-24T01:15:58.345Z,14.00
2018-06-24T01:18:28.845Z,15.25
2018-06-24T01:20:59.681Z,15.50
2018-06-24T01:23:30.826Z,15.50
2018-06-24T01:26:01.537Z,15.50
2018-06-24T01:28:36.267Z,17.00
2018-06-24T01:31:08.889Z,14.00
2018-06-24T01:33:39.605Z,14.75
2018-06-24T01:36:10.570Z,14.75
2018-06-24T01:38:41.269Z,15.00
2018-06-24T01:41:13.608Z,15.00
2018-06-24T01:43:56.090Z,13.00
2018-06-24T01:46:27.059Z,15.50
2018-06-24T01:48:58.230Z,14.50
2018-06-24T01:51:29.724Z,14.25
2018-06-24T01:54:00.264Z,15.00
2018-06-24T01:56:34.451Z,15.00
2018-06-24T01:59:11.487Z,18.00
2018-06-24T02:01:50.535Z,13.25
2018-06-24T02:04:21.021Z,17.00
2018-06-24T02:06:56.741Z,16.75
2018-06-24T02:09:27.436Z,15.75
2018-06-24T02:11:57.967Z,18.00
2018-06-24T02:14:29.105Z,16.75
2018-06-24T02:16:59.462Z,14.25
2018-06-24T02:19:31.443Z,16.25
2018-06-24T02:22:02.412Z,16.00
2018-06-24T02:24:33.688Z,18.50
2018-06-24T02:27:05.960Z,13.75
2018-06-24T02:29:36.827Z,16.50
2018-06-24T02:32:07.848Z,14.75
2018-06-24T02:34:46.064Z,15.75
2018-06-24T02:37:16.862Z,15.75
2018-06-24T02:39:48.936Z,15.75
2018-06-24T02:42:19.338Z,17.00
2018-06-24T02:44:49.850Z,16.50
2018-06-24T02:47:21.502Z,16.50
2018-06-24T02:49:52.714Z,16.50
2018-06-24T02:52:23.745Z,17.00
2018-06-24T02:55:01.157Z,15.25
2018-06-24T02:57:38.775Z,14.75
2018-06-24T03:00:19.318Z,15.75
2018-06-24T03:03:04.439Z,14.00
2018-06-24T03:05:35.244Z,15.25
2018-06-24T03:08:06.735Z,16.25
2018-06-24T03:10:37.989Z,15.25
2018-06-24T03:13:08.388Z,15.75
2018-06-24T03:15:39.776Z,15.75
2018-06-24T03:18:10.712Z,16.25
2018-06-24T03:20:42.366Z,17.25
2018-06-24T03:23:14.186Z,16.25
2018-06-24T03:25:45.222Z,15.75
2018-06-24T03:28:16.227Z,14.00
2018-06-24T03:30:47.803Z,14.00
2018-06-24T03:33:24.210Z,15.75
2018-06-24T03:35:54.731Z,16.75
2018-06-24T03:38:25.984Z,16.00
2018-06-24T03:40:56.641Z,16.25
2018-06-24T03:43:27.819Z,15.00
2018-06-24T03:45:59.820Z,16.50
2018-06-24T03:48:30.477Z,16.00
2018-06-24T03:51:01.553Z,16.00
2018-06-24T03:53:33.120Z,13.50
2018-06-24T03:56:06.138Z,16.00
2018-06-24T03:58:37.482Z,14.75
2018-06-24T04:01:08.084Z,13.75
2018-06-24T04:06:21.233Z,15.75
2018-06-24T04:08:56.634Z,14.75
2018-06-24T04:11:27.341Z,14.25
2018-06-24T04:13:58.080Z,15.00
2018-06-24T04:16:29.596Z,10.75
2018-06-24T04:18:59.948Z,14.75
2018-06-24T04:21:31.640Z,12.75
2018-06-24T04:24:03.094Z,13.75
2018-06-24T04:26:33.936Z,13.00
2018-06-24T04:29:08.685Z,14.00
2018-06-24T04:31:40.546Z,12.00
2018-06-24T04:34:11.838Z,12.50
2018-06-24T04:36:42.496Z,14.50
2018-06-24T04:39:13.401Z,10.75
2018-06-24T04:41:46.119Z,12.00
2018-06-24T04:44:16.544Z,12.00
2018-06-24T04:46:49.901Z,12.75
2018-06-24T04:49:21.413Z,12.00
2018-06-24T04:51:52.745Z,12.00
2018-06-24T04:54:23.420Z,13.00
2018-06-24T04:56:54.013Z,13.00
2018-06-24T04:59:25.176Z,12.75
2018-06-24T05:01:59.752Z,11.75
2018-06-24T05:04:32.788Z,13.25
2018-06-24T05:07:03.816Z,11.75
2018-06-24T05:09:34.490Z,11.75
2018-06-24T05:12:05.463Z,13.00
2018-06-24T05:14:36.099Z,13.00
2018-06-24T05:17:07.796Z,12.00
2018-06-24T05:19:38.632Z,14.00
2018-06-24T05:22:10.767Z,13.50
2018-06-24T05:24:41.647Z,16.25
2018-06-24T05:27:14.300Z,12.75
2018-06-24T05:29:45.636Z,13.25
2018-06-24T05:32:20.934Z,13.00
2018-06-24T05:34:52.219Z,13.25
2018-06-24T05:37:23.274Z,13.50
2018-06-24T05:39:55.749Z,13.50
2018-06-24T05:42:26.053Z,13.50
2018-06-24T05:44:57.505Z,15.50
2018-06-24T05:47:28.450Z,13.75
2018-06-24T05:49:59.142Z,11.25
2018-06-24T05:52:33.327Z,12.50
2018-06-24T05:55:04.402Z,14.50
2018-06-24T05:57:35.849Z,11.75
2018-06-24T06:00:16.305Z,13.75
2018-06-24T06:02:50.088Z,12.00
2018-06-24T06:05:21.660Z,12.25
2018-06-24T06:08:11.351Z,12.00
2018-06-24T06:10:42.701Z,13.00
2018-06-24T06:13:20.068Z,13.00
2018-06-24T06:15:51.403Z,10.25
2018-06-24T06:18:22.599Z,10.00
2018-06-24T06:20:54.073Z,9.25
2018-06-24T06:23:25.252Z,9.75
2018-06-24T06:25:57.187Z,10.00
2018-06-24T06:28:28.558Z,10.00
2018-06-24T06:33:30.421Z,10.50
2018-06-24T06:36:01.787Z,9.25
2018-06-24T06:38:36.553Z,9.00
2018-06-24T06:41:09.184Z,10.00
2018-06-24T06:43:43.666Z,10.00
2018-06-24T06:46:15.063Z,10.00
2018-06-24T06:48:45.913Z,6.75
2018-06-24T06:51:19.831Z,6.75
2018-06-24T06:53:51.782Z,8.00
2018-06-24T06:56:22.462Z,8.75
2018-06-24T06:58:54.427Z,8.75
2018-06-24T07:01:30.416Z,8.00
2018-06-24T07:06:34.173Z,8.00
2018-06-24T07:09:09.616Z,8.25
2018-06-24T07:11:41.025Z,9.00
2018-06-24T07:14:13.877Z,8.25
2018-06-24T07:16:44.778Z,9.75
2018-06-24T07:19:17.232Z,9.00
2018-06-24T07:21:49.390Z,9.75
2018-06-24T07:24:24.388Z,9.50
2018-06-24T07:27:00.326Z,9.00
2018-06-24T07:29:32.845Z,9.25
2018-06-24T07:32:08.675Z,10.75
2018-06-24T07:34:51.608Z,10.00
2018-06-24T07:37:34.505Z,9.25
2018-06-24T07:40:11.608Z,9.25
2018-06-24T07:42:47.012Z,8.75
2018-06-24T07:45:23.518Z,9.00
2018-06-24T07:47:58.281Z,9.00
2018-06-24T07:50:30.451Z,9.75
2018-06-24T07:53:01.565Z,8.75
2018-06-24T07:55:33.609Z,10.00
2018-06-24T07:58:06.730Z,9.00
2018-06-24T08:00:40.232Z,9.00
2018-06-24T08:03:16.309Z,9.00
2018-06-24T08:05:57.512Z,9.75
2018-06-24T08:08:29.713Z,10.00
2018-06-24T08:11:10.533Z,8.25
2018-06-24T08:13:45.093Z,8.25
2018-06-24T08:16:19.029Z,8.25
2018-06-24T08:18:50.282Z,11.00
2018-06-24T08:21:24.426Z,9.00
2018-06-24T08:26:42.305Z,11.00
2018-06-24T08:29:19.566Z,12.00
2018-06-24T08:31:52.343Z,9.75
2018-06-24T08:34:23.392Z,9.00
2018-06-24T08:36:57.312Z,9.50
2018-06-24T08:39:28.527Z,6.00
2018-06-24T08:41:59.299Z,7.00
2018-06-24T08:44:39.629Z,8.75
2018-06-24T08:47:23.515Z,11.00
2018-06-24T08:49:59.450Z,8.75
2018-06-24T08:52:32.508Z,10.00
2018-06-24T08:55:16.195Z,7.25
2018-06-24T08:57:50.867Z,9.00
2018-06-24T09:00:24.015Z,9.00
2018-06-24T09:02:56.563Z,8.25
2018-06-24T09:05:38.674Z,9.75
2018-06-24T09:08:11.024Z,10.75
2018-06-24T09:10:47.351Z,10.00
2018-06-24T09:13:22.002Z,9.00
2018-06-24T09:15:55.575Z,11.00
2018-06-24T09:18:31.123Z,10.00
2018-06-24T09:21:04.295Z,13.00
2018-06-24T09:23:40.060Z,12.00
2018-06-24T09:26:16.324Z,13.75
2018-06-24T09:28:58.708Z,10.00
2018-06-24T09:31:33.080Z,12.00
2018-06-24T09:34:13.570Z,9.75
2018-06-24T09:36:45.619Z,8.00
2018-06-24T09:41:44.116Z,12.50
2018-06-24T09:44:18.189Z,15.50
2018-06-24T09:46:58.378Z,14.00
2018-06-24T09:49:29.259Z,18.00
2018-06-24T09:54:41.905Z,15.25
2018-06-24T09:57:13.888Z,11.25
2018-06-24T09:59:44.705Z,12.50
2018-06-24T10:02:16.967Z,12.50
2018-06-24T10:04:48.295Z,11.50
2018-06-24T10:07:18.867Z,11.50
2018-06-24T10:09:51.233Z,12.75
2018-06-24T10:12:24.673Z,12.75
2018-06-24T10:14:55.954Z,12.50
2018-06-24T10:17:33.500Z,13.00
2018-06-24T10:20:07.145Z,15.00
2018-06-24T10:22:40.498Z,15.75
2018-06-24T10:25:25.536Z,13.50
2018-06-24T10:28:02.438Z,14.25
2018-06-24T10:30:39.444Z,9.25
2018-06-24T10:33:14.465Z,12.75
2018-06-24T10:35:46.470Z,8.75
2018-06-24T10:38:24.681Z,8.25
2018-06-24T10:40:58.212Z,8.75
2018-06-24T10:43:29.673Z,9.75
2018-06-24T10:46:09.275Z,8.25
2018-06-24T10:48:40.229Z,7.50
2018-06-24T10:51:17.743Z,8.25
2018-06-24T10:53:54.116Z,8.75
2018-06-24T10:56:41.060Z,8.75
2018-06-24T10:59:15.583Z,8.50
2018-06-24T11:01:55.968Z,9.00
2018-06-24T11:04:42.724Z,7.25
2018-06-24T11:07:15.962Z,9.75
2018-06-24T11:09:48.355Z,8.75
2018-06-24T11:12:20.694Z,7.50
2018-06-24T11:14:53.263Z,6.75
2018-06-24T11:17:27.388Z,5.50
2018-06-24T11:19:57.945Z,5.75
2018-06-24T11:22:30.490Z,5.75
2018-06-24T11:25:12.699Z,5.75
2018-06-24T11:27:46.271Z,5.00
2018-06-24T11:30:20.727Z,3.00
2018-06-24T11:32:52.020Z,4.00
2018-06-24T11:35:23.874Z,6.00
2018-06-24T11:37:57.246Z,5.25
2018-06-24T11:40:37.522Z,5.25
2018-06-24T11:43:23.675Z,4.25
2018-06-24T11:45:54.911Z,5.00
2018-06-24T11:48:25.364Z,4.25
2018-06-24T11:50:59.588Z,5.00
2018-06-24T11:53:33.091Z,3.75
2018-06-24T11:56:05.435Z,5.00
2018-06-24T11:58:37.860Z,5.25
2018-06-24T12:03:48.244Z,5.50
2018-06-24T12:06:24.022Z,6.00
2018-06-24T12:09:02.029Z,6.00
2018-06-24T12:11:35.612Z,5.00
2018-06-24T12:14:18.540Z,6.75
2018-06-24T12:16:50.588Z,7.00
2018-06-24T12:19:27.429Z,5.50
2018-06-24T12:22:04.330Z,7.00
2018-06-24T12:24:39.668Z,7.00
2018-06-24T12:27:11.796Z,8.00
2018-06-24T12:29:51.755Z,6.75
2018-06-24T12:32:27.972Z,7.25
2018-06-24T12:35:00.278Z,8.00
2018-06-24T12:37:34.008Z,8.00
2018-06-24T12:40:13.196Z,8.00
2018-06-24T12:42:56.081Z,7.25
2018-06-24T12:45:50.708Z,5.00
2018-06-24T12:48:29.870Z,6.00
2018-06-24T12:51:04.021Z,5.50
2018-06-24T12:53:39.772Z,7.25
2018-06-24T12:56:21.863Z,7.00
2018-06-24T12:59:04.248Z,6.00
2018-06-24T13:01:39.301Z,7.50
2018-06-24T13:04:30.612Z,6.00
2018-06-24T13:07:05.384Z,7.00
2018-06-24T13:09:42.251Z,6.25
2018-06-24T13:12:15.981Z,6.00
2018-06-24T13:14:48.321Z,7.00
2018-06-24T13:17:22.023Z,7.00
2018-06-24T13:19:53.662Z,8.25
2018-06-24T13:22:37.350Z,6.00
2018-06-24T13:25:16.121Z,5.25
2018-06-24T13:27:48.665Z,6.00
2018-06-24T13:30:26.818Z,6.75
2018-06-24T13:33:04.773Z,7.75
2018-06-24T13:35:47.329Z,7.75
2018-06-24T13:38:25.568Z,8.25
2018-06-24T13:40:57.687Z,8.25
2018-06-24T13:43:38.752Z,9.25
2018-06-24T13:46:20.569Z,10.00
2018-06-24T13:48:55.485Z,10.25
2018-06-24T13:51:37.388Z,10.00
2018-06-24T13:54:16.484Z,9.00
2018-06-24T13:56:58.486Z,8.25
2018-06-24T13:59:40.076Z,10.50
2018-06-24T14:02:25.457Z,6.25
2018-06-24T14:04:59.968Z,6.00
2018-06-24T14:07:35.073Z,8.00
2018-06-24T14:10:17.327Z,12.00
2018-06-24T14:12:55.714Z,8.75
2018-06-24T14:15:32.439Z,8.25
2018-06-24T14:18:06.437Z,7.00
2018-06-24T14:20:39.609Z,7.00
2018-06-24T14:23:17.772Z,7.00
2018-06-24T14:26:51.654Z,6.00
2018-06-24T14:29:26.672Z,7.00
2018-06-24T14:31:59.648Z,8.25
2018-06-24T14:37:00.054Z,8.00
2018-06-24T14:39:34.225Z,7.00
2018-06-24T14:42:06.987Z,7.75
2018-06-24T14:44:51.405Z,7.00
2018-06-24T14:47:24.410Z,7.25
2018-06-24T14:49:55.810Z,7.75
2018-06-24T14:52:26.465Z,9.00
2018-06-24T14:54:59.441Z,7.25
2018-06-24T14:57:31.320Z,8.00
2018-06-24T15:00:09.497Z,6.50
2018-06-24T15:02:50.398Z,8.00
2018-06-24T15:08:20.924Z,7.50
2018-06-24T15:10:56.880Z,7.00
2018-06-24T15:13:35.150Z,7.00
2018-06-24T15:16:11.032Z,7.00
2018-06-24T15:18:42.151Z,6.25
2018-06-24T15:21:13.235Z,7.00
2018-06-24T15:23:48.609Z,6.25
2018-06-24T15:26:29.102Z,8.25
2018-06-24T15:29:02.714Z,6.25
2018-06-24T15:31:40.840Z,5.75
2018-06-24T15:34:13.027Z,5.00
2018-06-24T15:36:49.857Z,4.50
2018-06-24T15:42:11.768Z,6.50
2018-06-24T15:44:47.396Z,5.00
2018-06-24T15:47:28.225Z,5.00
2018-06-24T15:49:59.451Z,5.00
2018-06-24T15:52:32.562Z,5.00
2018-06-24T15:55:02.692Z,6.00
2018-06-24T15:57:35.610Z,6.00
2018-06-24T16:00:18.328Z,6.00
2018-06-24T16:02:54.679Z,7.00
2018-06-24T16:05:46.163Z,6.50
2018-06-24T16:08:25.374Z,6.00
2018-06-24T16:10:57.560Z,7.50
2018-06-24T16:13:30.684Z,6.50
2018-06-24T16:16:06.354Z,7.00
2018-06-24T16:18:41.768Z,6.50
2018-06-24T16:21:24.699Z,6.00
2018-06-24T16:23:57.941Z,6.00
2018-06-24T16:26:30.275Z,6.00
2018-06-24T16:29:07.248Z,5.50
2018-06-24T16:31:46.231Z,5.25
2018-06-24T16:34:31.251Z,5.75
2018-06-24T16:39:48.801Z,7.00
2018-06-24T16:42:22.472Z,5.25
2018-06-24T16:44:56.285Z,6.50
2018-06-24T16:47:31.836Z,6.00
2018-06-24T16:50:04.417Z,6.00
2018-06-24T16:52:37.717Z,5.00
2018-06-24T16:55:09.127Z,6.00
2018-06-24T16:57:42.151Z,5.25
2018-06-24T17:00:50.428Z,5.00
2018-06-24T17:03:24.511Z,5.00
2018-06-24T17:05:56.777Z,8.75
2018-06-24T17:08:27.659Z,5.50
2018-06-24T17:10:58.196Z,6.00
2018-06-24T17:13:30.197Z,6.00
2018-06-24T17:16:01.988Z,5.00
2018-06-24T17:18:39.593Z,7.00
2018-06-24T17:21:11.209Z,6.25
2018-06-24T17:23:44.761Z,5.00
2018-06-24T17:28:59.262Z,5.75
2018-06-24T17:31:36.813Z,5.00
2018-06-24T17:34:11.517Z,5.75
2018-06-24T17:36:43.875Z,6.00
2018-06-24T17:39:17.005Z,4.25
2018-06-24T17:41:51.826Z,5.00
2018-06-24T17:47:09.491Z,5.00
2018-06-24T17:49:41.204Z,4.00
2018-06-24T17:52:11.987Z,5.25
2018-06-24T17:54:47.806Z,5.50
2018-06-24T17:57:20.598Z,4.00
2018-06-24T17:59:53.552Z,4.00
2018-06-24T18:02:28.740Z,3.50
2018-06-24T18:05:02.585Z,5.00
2018-06-24T18:07:37.373Z,5.00
2018-06-24T18:10:09.082Z,5.75
2018-06-24T18:12:41.746Z,6.50
2018-06-24T18:15:20.084Z,7.00
2018-06-24T18:17:52.480Z,6.00
2018-06-24T18:20:30.228Z,6.75
2018-06-24T18:23:02.025Z,6.00
2018-06-24T18:25:38.008Z,7.75
2018-06-24T18:28:13.626Z,6.00
2018-06-24T18:30:44.630Z,6.00
2018-06-24T18:33:19.083Z,5.25
2018-06-24T18:35:52.520Z,6.00
2018-06-24T18:38:31.341Z,5.00
2018-06-24T18:41:10.530Z,5.00
2018-06-24T18:43:41.357Z,6.50
2018-06-24T18:46:12.580Z,5.25
2018-06-24T18:48:44.333Z,6.00
2018-06-24T18:51:17.156Z,5.00
2018-06-24T18:53:51.283Z,6.00
2018-06-24T18:56:30.111Z,5.75
2018-06-24T18:59:07.432Z,4.25
2018-06-24T19:01:42.819Z,5.00
2018-06-24T19:04:15.461Z,5.00
2018-06-24T19:06:51.374Z,4.75
2018-06-24T19:09:36.020Z,4.50
2018-06-24T19:12:08.483Z,5.00
2018-06-24T19:14:47.588Z,5.00
2018-06-24T19:17:20.325Z,5.00
2018-06-24T19:19:53.458Z,4.50
2018-06-24T19:22:25.395Z,4.25
2018-06-24T19:24:57.287Z,4.25
2018-06-24T19:27:29.223Z,5.00
2018-06-24T19:30:05.866Z,4.00
2018-06-24T19:32:39.009Z,4.75
2018-06-24T19:35:11.768Z,4.00
2018-06-24T19:37:45.557Z,4.50
2018-06-24T19:40:23.680Z,4.00
2018-06-24T19:42:56.575Z,5.00
2018-06-24T19:45:40.291Z,5.50
2018-06-24T19:48:17.327Z,4.00
2018-06-24T19:50:52.041Z,4.00
2018-06-24T19:53:26.632Z,4.00
2018-06-24T19:56:06.192Z,4.00
2018-06-24T19:58:41.371Z,4.25
2018-06-24T20:01:20.411Z,4.25
2018-06-24T20:04:01.763Z,6.00
2018-06-24T20:06:35.385Z,5.00
2018-06-24T20:09:13.785Z,6.25
2018-06-24T20:11:45.233Z,7.00
2018-06-24T20:14:16.418Z,8.50
2018-06-24T20:16:49.262Z,7.75
2018-06-24T20:19:23.783Z,5.50
2018-06-24T20:21:57.241Z,7.25
2018-06-24T20:24:33.407Z,7.25
2018-06-24T20:27:06.121Z,8.00
2018-06-24T20:29:45.485Z,7.25
2018-06-24T20:32:17.537Z,8.00
2018-06-24T20:35:03.282Z,6.00
2018-06-24T20:37:34.459Z,8.75
2018-06-24T20:42:43.445Z,8.25
2018-06-24T20:45:21.633Z,7.75
2018-06-24T20:48:03.400Z,7.00
2018-06-24T20:50:37.765Z,8.25
2018-06-24T20:53:11.756Z,5.25
2018-06-24T20:55:45.662Z,5.75
2018-06-24T20:58:23.817Z,4.50
2018-06-24T21:01:01.372Z,5.50
2018-06-24T21:03:33.637Z,4.25
2018-06-24T21:06:11.830Z,4.25
2018-06-24T21:08:44.191Z,2.75
2018-06-24T21:14:14.505Z,4.00
2018-06-24T21:16:46.779Z,3.50
2018-06-24T21:19:22.146Z,5.00
2018-06-24T21:22:06.850Z,5.75
2018-06-24T21:24:41.385Z,4.50
2018-06-24T21:27:17.270Z,4.50
2018-06-24T21:29:48.711Z,4.00
2018-06-24T21:32:24.454Z,5.00
2018-06-24T21:35:05.238Z,4.00
2018-06-24T21:37:50.439Z,4.75
2018-06-24T21:40:27.572Z,4.75
2018-06-24T21:43:03.874Z,4.00
2018-06-24T21:45:39.355Z,4.25
2018-06-24T21:48:11.670Z,4.25
2018-06-24T21:50:46.495Z,3.50
2018-06-24T21:53:17.190Z,5.75
2018-06-24T21:55:50.295Z,4.75
2018-06-24T21:58:22.051Z,4.00
2018-06-24T22:00:58.285Z,5.50
2018-06-24T22:03:29.318Z,5.00
2018-06-24T22:06:04.888Z,4.00
2018-06-24T22:08:37.465Z,5.00
2018-06-24T22:11:09.050Z,5.00
2018-06-24T22:13:39.779Z,4.25
2018-06-24T22:16:12.483Z,5.50
2018-06-24T22:18:45.286Z,6.75
2018-06-24T22:21:18.444Z,6.50
2018-06-24T22:23:51.056Z,9.00
2018-06-24T22:26:25.244Z,8.50
2018-06-24T22:28:57.975Z,8.25
2018-06-24T22:31:31.983Z,7.75
2018-06-24T22:34:06.898Z,8.00
2018-06-24T22:36:39.434Z,7.00
2018-06-24T22:39:14.573Z,7.25
2018-06-24T22:41:48.442Z,8.00
2018-06-24T22:44:22.904Z,7.00
2018-06-24T22:46:53.386Z,7.25
2018-06-24T22:49:25.256Z,8.00
2018-06-24T22:52:02.155Z,8.25
2018-06-24T22:54:35.737Z,7.00
2018-06-24T22:57:09.824Z,8.00
2018-06-24T22:59:53.141Z,8.50
2018-06-24T23:02:25.539Z,8.25
2018-06-24T23:04:56.180Z,8.00
2018-06-24T23:07:27.632Z,8.00
2018-06-24T23:09:58.785Z,8.25
2018-06-24T23:12:34.891Z,8.00
2018-06-24T23:15:13.740Z,7.75
2018-06-24T23:17:44.407Z,7.75
2018-06-24T23:20:17.237Z,9.00
2018-06-24T23:22:48.595Z,8.00
2018-06-24T23:25:20.583Z,8.25
2018-06-24T23:27:51.369Z,9.50
2018-06-24T23:30:22.279Z,9.00
2018-06-24T23:32:53.761Z,9.25
2018-06-24T23:35:27.844Z,8.75
2018-06-24T23:37:59.527Z,9.25
2018-06-24T23:40:30.311Z,9.00
2018-06-24T23:43:00.645Z,7.50
2018-06-24T23:45:32.570Z,7.00
2018-06-24T23:48:03.679Z,7.00
2018-06-24T23:50:37.389Z,5.75
2018-06-24T23:53:08.070Z,5.75
2018-06-24T23:55:39.836Z,7.00
2018-06-24T23:58:10.413Z,8.25
